TAF Text Data
IDs:
Format:
Raw Decoded Include METAR

Data at: 1520 UTC 27 Nov 2021

KHUL 271120Z 2712/2812 32012KT 2SM -SN BR OVC015
  FM271600 27012G20KT 2SM -SN BLSN OVC015
  FM271900 27013G23KT 5SM -SHSN BLSN OVC018
  FM272200 26012G20KT P6SM BKN025
  FM280100 27010KT P6SM BKN040